Time;durP1;ratioP1;P1;durP2;ratioP2;P2;SDS_P1;SDS_P2;PMS_P1;PMS_P2;Temp;Humidity;BMP_temperature;BMP_pressure;BME280_temperature;BME280_humidity;BME280_pressure;Samples;Min_cycle;Max_cycle;Signal;HPM_P1;HPM_P2
2022/04/19 00:00:54;;;;;;;;;;;;;;;11.86;41.38;100372.38;4977139;28;6824;-75
2022/04/19 00:03:20;;;;;;;;;;;;;;;11.80;41.18;100376.44;4982738;28;6800;-75
2022/04/19 00:05:47;;;;;;;;;;;;;;;11.76;41.32;100371.97;4983147;28;6804;-75
2022/04/19 00:08:15;;;;;;;;;;;;;;;11.70;41.34;100366.59;4986651;28;7296;-75
2022/04/19 00:10:42;;;;;;;;;;;;;;;11.65;41.48;100368.97;4966437;28;7377;-75
2022/04/19 00:13:11;;;;;;;;;;;;;;;11.60;41.78;100372.16;4998959;28;9228;-75
2022/04/19 00:15:38;;;;;;;;;;;;;;;11.54;42.14;100370.19;4983930;28;6804;-75
2022/04/19 00:18:07;;;;;;;;;;;;;;;11.48;42.36;100365.66;4983823;28;6808;-75
2022/04/19 00:20:33;;;;;;;;;;;;;;;11.44;42.80;100368.91;4985900;28;7477;-75
2022/04/19 00:23:00;;;;;;;;;;;;;;;11.36;42.75;100360.88;4985996;28;7158;-75
2022/04/19 00:25:26;;;;;;;;;;;;;;;11.32;43.15;100374.38;4983290;28;6966;-75
2022/04/19 00:27:52;;;;;;;;;;;;;;;11.28;43.19;100366.47;4984145;28;7174;-75
2022/04/19 00:30:18;;;;;;;;;;;;;;;11.24;43.39;100371.47;4983161;28;6816;-75
2022/04/19 00:32:43;;;;;;;;;;;;;;;11.24;43.40;100368.91;4984942;28;6799;-75
2022/04/19 00:35:11;;;;;;;;;;;;;;;11.24;43.53;100374.03;4987684;28;6969;-75
2022/04/19 00:37:38;;;;;;;;;;;;;;;11.21;43.40;100373.91;4983228;28;6819;-75
2022/04/19 00:40:07;;;;;;;;;;;;;;;11.17;43.45;100368.56;4986628;28;6804;-75
2022/04/19 00:42:36;;;;;;;;;;;;;;;11.12;43.31;100365.78;4982351;28;6838;-75
2022/04/19 00:45:05;;;;;;;;;;;;;;;11.08;43.57;100361.31;4983572;28;6820;-75
2022/04/19 00:47:32;;;;;;;;;;;;;;;11.07;44.14;100357.00;4979822;28;6915;-75
2022/04/19 00:50:03;;;;;;;;;;;;;;;11.08;44.13;100358.75;5002311;28;6811;-75
2022/04/19 00:52:31;;;;;;;;;;;;;;;11.07;44.13;100359.56;4986266;28;6970;-75
2022/04/19 00:54:59;;;;;;;;;;;;;;;11.04;43.90;100359.44;4987822;28;6831;-75
2022/04/19 00:57:26;;;;;;;;;;;;;;;11.01;43.73;100352.47;4984680;28;7062;-75
2022/04/19 00:59:57;;;;;;;;;;;;;;;10.98;44.08;100353.19;4968534;28;6995;-75
2022/04/19 01:02:25;;;;;;;;;;;;;;;10.94;44.09;100356.44;4982204;28;7262;-75
2022/04/19 01:04:55;;;;;;;;;;;;;;;10.91;43.98;100348.63;4985901;28;6807;-75
2022/04/19 01:07:22;;;;;;;;;;;;;;;10.88;43.81;100353.59;4970752;28;6941;-75
2022/04/19 01:09:48;;;;;;;;;;;;;;;10.82;44.23;100350.78;4986054;28;7238;-75
2022/04/19 01:15:09;;;;;;;;;;;;;;;10.70;44.89;100346.81;4985729;28;6919;-75
2022/04/19 01:17:39;;;;;;;;;;;;;;;10.67;44.63;100344.09;4968453;28;7389;-75
2022/04/19 01:20:12;;;;;;;;;;;;;;;10.64;44.81;100345.66;5000110;28;6808;-75
2022/04/19 01:22:40;;;;;;;;;;;;;;;10.60;44.65;100347.19;4981211;28;7180;-75
2022/04/19 01:25:08;;;;;;;;;;;;;;;10.55;45.63;100341.84;4997564;28;6887;-75
2022/04/19 01:27:34;;;;;;;;;;;;;;;10.55;45.21;100340.97;4982021;28;6823;-75
2022/04/19 01:30:06;;;;;;;;;;;;;;;10.56;45.20;100343.59;4986664;28;6871;-75
2022/04/19 01:32:32;;;;;;;;;;;;;;;10.58;45.52;100341.09;4984468;28;7249;-75
2022/04/19 01:35:16;;;;;;;;;;;;;;;10.61;45.51;100340.38;4994752;28;6828;-75
2022/04/19 01:37:45;;;;;;;;;;;;;;;10.61;45.95;100340.38;4983484;28;6808;-75
2022/04/19 01:40:18;;;;;;;;;;;;;;;10.62;45.86;100340.47;5000883;28;8580;-75
2022/04/19 01:43:09;;;;;;;;;;;;;;;10.60;46.08;100343.75;4981984;28;7306;-75
2022/04/19 01:45:34;;;;;;;;;;;;;;;10.55;45.74;100335.84;4985685;28;6831;-75
2022/04/19 01:48:01;;;;;;;;;;;;;;;10.51;45.33;100333.94;4982368;28;6807;-75
2022/04/19 01:50:28;;;;;;;;;;;;;;;10.49;45.33;100338.13;4981715;28;7840;-75
2022/04/19 01:52:57;;;;;;;;;;;;;;;10.46;46.03;100326.03;4981480;28;7264;-75
2022/04/19 01:55:24;;;;;;;;;;;;;;;10.45;45.95;100333.66;4979335;28;7330;-75
2022/04/19 01:57:56;;;;;;;;;;;;;;;10.42;46.00;100331.81;4981195;28;6879;-75
2022/04/19 02:00:21;;;;;;;;;;;;;;;10.39;45.37;100329.97;4969019;28;7236;-75
2022/04/19 02:02:48;;;;;;;;;;;;;;;10.37;45.95;100334.13;4984206;28;6860;-75
2022/04/19 02:05:16;;;;;;;;;;;;;;;10.32;46.19;100333.03;4965817;28;8330;-75
2022/04/19 02:07:44;;;;;;;;;;;;;;;10.31;46.86;100336.38;4983353;28;6887;-75
2022/04/19 02:10:14;;;;;;;;;;;;;;;10.28;47.04;100333.69;4985408;28;6888;-75
2022/04/19 02:12:39;;;;;;;;;;;;;;;10.27;47.27;100334.50;4962920;28;6996;-75
2022/04/19 02:15:07;;;;;;;;;;;;;;;10.26;46.32;100332.75;4980234;28;8014;-75
2022/04/19 02:17:33;;;;;;;;;;;;;;;10.25;46.34;100328.44;4983406;28;6791;-75
2022/04/19 02:20:06;;;;;;;;;;;;;;;10.23;47.12;100328.34;4979420;28;6803;-75
2022/04/19 02:22:36;;;;;;;;;;;;;;;10.22;46.75;100328.25;4982750;28;6892;-75
2022/04/19 02:25:03;;;;;;;;;;;;;;;10.19;47.09;100325.56;4983814;28;6992;-75
2022/04/19 02:27:33;;;;;;;;;;;;;;;10.14;47.18;100330.47;4975996;28;6816;-75
2022/04/19 02:30:04;;;;;;;;;;;;;;;10.07;46.81;100326.72;4997901;28;6815;-75
2022/04/19 02:32:33;;;;;;;;;;;;;;;10.02;46.40;100324.75;4983960;28;6903;-75
2022/04/19 02:35:00;;;;;;;;;;;;;;;9.97;47.24;100327.09;4983627;28;6816;-75
2022/04/19 02:37:25;;;;;;;;;;;;;;;9.93;47.83;100322.59;4978016;28;7183;-75
2022/04/19 02:39:51;;;;;;;;;;;;;;;9.88;46.71;100322.38;4961525;28;6788;-75
2022/04/19 02:42:17;;;;;;;;;;;;;;;9.84;47.28;100313.66;4980571;28;7835;-75
2022/04/19 02:44:43;;;;;;;;;;;;;;;9.81;47.25;100316.06;4985009;28;6892;-75
2022/04/19 02:47:10;;;;;;;;;;;;;;;9.78;47.86;100312.47;4981199;28;6842;-75
2022/04/19 02:49:39;;;;;;;;;;;;;;;9.73;47.44;100309.69;4982640;28;6969;-75
2022/04/19 02:52:05;;;;;;;;;;;;;;;9.68;46.97;100317.13;4981778;28;6824;-75
2022/04/19 02:54:30;;;;;;;;;;;;;;;9.63;48.01;100312.59;4983798;28;7287;-75
2022/04/19 02:56:57;;;;;;;;;;;;;;;9.56;47.30;100321.66;4987831;28;7678;-75
2022/04/19 02:59:22;;;;;;;;;;;;;;;9.53;48.00;100321.50;4993432;28;7161;-75
2022/04/19 03:01:48;;;;;;;;;;;;;;;9.47;48.41;100314.41;4965322;28;6875;-75
2022/04/19 03:04:14;;;;;;;;;;;;;;;9.44;48.90;100317.66;4998257;28;6883;-75
2022/04/19 03:06:40;;;;;;;;;;;;;;;9.43;48.16;100317.59;4983828;28;6948;-75
2022/04/19 03:09:06;;;;;;;;;;;;;;;9.39;48.15;100313.97;4964833;28;6946;-75
2022/04/19 03:11:32;;;;;;;;;;;;;;;9.39;49.12;100308.00;4969049;28;7926;-75
2022/04/19 03:13:58;;;;;;;;;;;;;;;9.37;47.62;100314.72;4984468;28;6824;-75
2022/04/19 03:16:24;;;;;;;;;;;;;;;9.31;47.82;100313.59;4980781;28;6803;-75
2022/04/19 03:18:50;;;;;;;;;;;;;;;9.28;49.21;100310.88;4983020;28;6792;-75
2022/04/19 03:21:16;;;;;;;;;;;;;;;9.25;48.89;100310.72;4984105;28;6783;-75
2022/04/19 03:29:12;;;;;;;;;;;;;;;9.17;48.88;100310.31;4956153;28;8679;-74
2022/04/19 03:31:38;;;;;;;;;;;;;;;9.18;48.63;100313.78;4962701;28;6995;-74
2022/04/19 03:34:05;;;;;;;;;;;;;;;9.17;49.66;100318.00;4981827;28;6792;-74
2022/04/19 03:36:32;;;;;;;;;;;;;;;9.16;49.39;100313.69;4998851;28;6807;-74
2022/04/19 03:38:59;;;;;;;;;;;;;;;9.15;48.76;100311.03;4982771;28;6812;-74
2022/04/19 03:41:25;;;;;;;;;;;;;;;9.10;48.79;100308.22;4988582;28;6792;-74
2022/04/19 03:43:53;;;;;;;;;;;;;;;9.08;49.63;100312.41;4981457;28;6788;-74
2022/04/19 03:46:20;;;;;;;;;;;;;;;9.07;49.28;100304.63;4983709;28;7876;-74
2022/04/19 03:48:45;;;;;;;;;;;;;;;9.06;50.45;100302.88;4976596;28;6800;-74
2022/04/19 03:51:11;;;;;;;;;;;;;;;9.06;50.07;100302.88;4958624;28;6863;-74
2022/04/19 03:53:37;;;;;;;;;;;;;;;9.06;49.91;100297.75;4998375;28;6787;-74
2022/04/19 03:56:06;;;;;;;;;;;;;;;9.08;49.55;100304.72;4985185;28;7130;-74
2022/04/19 03:58:32;;;;;;;;;;;;;;;9.12;50.38;100304.06;4997889;28;7961;-74
2022/04/19 04:01:00;;;;;;;;;;;;;;;9.16;50.22;100294.88;4981579;28;7161;-74
2022/04/19 04:03:27;;;;;;;;;;;;;;;9.21;50.59;100296.03;4982207;28;6999;-74
2022/04/19 04:05:54;;;;;;;;;;;;;;;9.26;50.05;100302.25;4994152;28;6998;-74
2022/04/19 04:08:19;;;;;;;;;;;;;;;9.28;49.25;100300.66;4994425;28;8644;-74
2022/04/19 04:10:45;;;;;;;;;;;;;;;9.29;49.34;100306.63;4982264;28;6858;-74
2022/04/19 04:13:10;;;;;;;;;;;;;;;9.28;49.35;100305.78;4980297;28;6831;-74
2022/04/19 04:15:36;;;;;;;;;;;;;;;9.29;49.11;100307.53;4978886;28;6780;-74
2022/04/19 04:18:02;;;;;;;;;;;;;;;9.28;50.16;100310.88;4981524;28;6867;-74
2022/04/19 04:20:29;;;;;;;;;;;;;;;9.27;49.51;100313.34;4981960;28;7844;-75
2022/04/19 04:22:54;;;;;;;;;;;;;;;9.24;49.95;100314.06;4968730;28;6803;-75
2022/04/19 04:25:20;;;;;;;;;;;;;;;9.21;50.08;100306.25;4985154;28;6819;-75
2022/04/19 04:27:46;;;;;;;;;;;;;;;9.19;49.02;100315.53;4982515;28;6800;-75
2022/04/19 04:30:12;;;;;;;;;;;;;;;9.15;49.49;100311.03;4983188;28;7109;-75
2022/04/19 04:32:38;;;;;;;;;;;;;;;9.12;50.13;100314.31;4984050;28;6792;-75
2022/04/19 04:35:05;;;;;;;;;;;;;;;9.08;48.92;100322.63;4963313;28;7051;-75
2022/04/19 04:37:31;;;;;;;;;;;;;;;9.02;49.80;100322.28;4998190;28;6966;-75
2022/04/19 04:39:56;;;;;;;;;;;;;;;8.98;49.75;100323.84;4999346;28;6780;-73
2022/04/19 04:42:22;;;;;;;;;;;;;;;8.96;49.69;100327.97;4985741;28;6807;-74
2022/04/19 04:44:48;;;;;;;;;;;;;;;8.93;49.87;100325.25;4982868;28;6995;-74
2022/04/19 04:49:59;;;;;;;;;;;;;;;8.97;50.51;100322.03;4982456;28;6828;-74
2022/04/19 04:52:25;;;;;;;;;;;;;;;9.01;50.07;100321.44;4988269;28;6788;-74
2022/04/19 04:54:51;;;;;;;;;;;;;;;9.08;50.08;100322.63;4969152;28;6956;-74
2022/04/19 04:57:19;;;;;;;;;;;;;;;9.13;50.06;100322.88;4969694;28;6883;-74
2022/04/19 04:59:47;;;;;;;;;;;;;;;9.17;50.31;100323.09;4962199;28;7219;-74
2022/04/19 05:02:12;;;;;;;;;;;;;;;9.24;50.21;100331.13;4986657;28;6807;-74
2022/04/19 05:04:38;;;;;;;;;;;;;;;9.28;50.27;100318.56;4985806;28;6815;-74
2022/04/19 05:07:04;;;;;;;;;;;;;;;9.34;50.89;100327.34;5002497;28;6879;-74
2022/04/19 05:09:30;;;;;;;;;;;;;;;9.40;49.87;100320.84;4985253;28;7054;-74
2022/04/19 05:11:56;;;;;;;;;;;;;;;9.45;49.94;100327.09;4987832;28;7196;-74
2022/04/19 05:14:22;;;;;;;;;;;;;;;9.52;49.69;100328.28;4968752;28;7014;-74
2022/04/19 05:16:47;;;;;;;;;;;;;;;9.57;49.99;100329.41;4984271;28;6972;-74
2022/04/19 05:19:13;;;;;;;;;;;;;;;9.63;50.74;100330.50;4987828;28;6967;-74
2022/04/19 05:21:39;;;;;;;;;;;;;;;9.67;50.21;100335.84;4988057;28;6840;-74
2022/04/19 05:24:06;;;;;;;;;;;;;;;9.73;50.68;100335.28;5002891;28;6799;-75
2022/04/19 05:26:32;;;;;;;;;;;;;;;9.82;50.53;100337.44;4984516;28;7031;-75
2022/04/19 05:28:58;;;;;;;;;;;;;;;9.93;50.93;100332.84;4986747;28;9917;-74
2022/04/19 05:31:24;;;;;;;;;;;;;;;10.04;50.49;100335.94;4987316;28;7126;-74
2022/04/19 05:33:50;;;;;;;;;;;;;;;10.13;49.86;100331.28;4977503;28;6792;-74
2022/04/19 05:36:16;;;;;;;;;;;;;;;10.25;50.56;100341.25;4984230;28;6804;-74
2022/04/19 05:38:43;;;;;;;;;;;;;;;10.34;50.36;100344.25;4987775;28;6991;-74
2022/04/19 05:41:10;;;;;;;;;;;;;;;10.46;50.53;100338.84;4983874;28;8478;-74
2022/04/19 05:43:36;;;;;;;;;;;;;;;10.58;50.24;100343.66;4987225;28;6819;-75
2022/04/19 05:46:01;;;;;;;;;;;;;;;10.69;49.73;100342.47;4970596;28;7376;-75
2022/04/19 05:48:28;;;;;;;;;;;;;;;10.80;50.32;100347.22;5002956;28;6993;-75
2022/04/19 05:50:53;;;;;;;;;;;;;;;10.93;49.97;100349.56;4984790;28;7657;-75
2022/04/19 05:53:19;;;;;;;;;;;;;;;11.04;49.73;100344.03;4984585;28;6887;-75
2022/04/19 05:55:45;;;;;;;;;;;;;;;11.15;49.21;100342.84;4979380;28;6792;-74
2022/04/19 05:58:11;;;;;;;;;;;;;;;11.29;49.42;100346.00;4986731;28;7739;-74
2022/04/19 06:00:37;;;;;;;;;;;;;;;11.43;48.98;100343.16;4984541;28;6979;-74
2022/04/19 06:05:47;;;;;;;;;;;;;;;11.73;48.04;100340.16;4986433;28;6908;-74
2022/04/19 06:08:14;;;;;;;;;;;;;;;11.87;47.83;100340.72;4979912;28;6812;-74
2022/04/19 06:10:41;;;;;;;;;;;;;;;12.03;47.88;100337.16;4983958;28;6888;-74
2022/04/19 06:13:07;;;;;;;;;;;;;;;12.18;48.00;100342.06;4984055;28;7118;-74
2022/04/19 06:15:33;;;;;;;;;;;;;;;12.32;47.08;100338.31;4982239;28;6808;-74
2022/04/19 06:17:59;;;;;;;;;;;;;;;12.47;46.60;100344.91;4986329;28;6819;-74
2022/04/19 06:20:25;;;;;;;;;;;;;;;12.61;46.37;100338.59;5002312;28;6875;-74
2022/04/19 06:22:51;;;;;;;;;;;;;;;12.75;45.80;100344.28;4985158;28;6776;-74
2022/04/19 06:25:17;;;;;;;;;;;;;;;12.87;45.59;100343.88;4983975;28;7208;-74
2022/04/19 06:27:43;;;;;;;;;;;;;;;13.00;45.99;100334.03;4982719;28;6926;-74
2022/04/19 06:30:09;;;;;;;;;;;;;;;13.13;45.13;100330.22;4981462;28;6796;-74
2022/04/19 06:32:35;;;;;;;;;;;;;;;13.26;45.56;100334.97;4984943;28;6803;-74
2022/04/19 06:35:01;;;;;;;;;;;;;;;13.39;44.37;100338.84;4983399;28;6791;-74
2022/04/19 06:37:28;;;;;;;;;;;;;;;13.49;44.98;100339.22;4985917;28;7090;-74
2022/04/19 06:39:54;;;;;;;;;;;;;;;13.61;44.85;100335.38;4997601;28;7328;-74
2022/04/19 06:42:20;;;;;;;;;;;;;;;13.71;44.82;100336.59;4987544;28;6824;-74
2022/04/19 06:44:45;;;;;;;;;;;;;;;13.83;43.85;100333.53;4983846;28;7012;-74
2022/04/19 06:47:11;;;;;;;;;;;;;;;13.95;43.97;100338.22;4985566;28;6902;-74
2022/04/19 06:49:38;;;;;;;;;;;;;;;14.07;43.91;100339.44;5000221;28;6923;-74
2022/04/19 06:52:06;;;;;;;;;;;;;;;14.19;43.50;100341.53;5002815;28;6880;-74
2022/04/19 06:54:33;;;;;;;;;;;;;;;14.29;43.57;100339.31;4986159;28;6979;-74
2022/04/19 06:56:58;;;;;;;;;;;;;;;14.43;42.98;100338.88;5000339;28;6823;-74
2022/04/19 06:59:25;;;;;;;;;;;;;;;14.54;42.76;100342.66;4986207;28;6946;-74
2022/04/19 07:01:52;;;;;;;;;;;;;;;14.69;42.19;100342.25;5000355;28;6807;-74
2022/04/19 07:04:17;;;;;;;;;;;;;;;14.83;42.92;100339.25;4996263;28;6837;-74
2022/04/19 07:06:43;;;;;;;;;;;;;;;14.96;41.76;100346.50;5001563;28;6791;-74
2022/04/19 07:09:08;;;;;;;;;;;;;;;15.07;42.04;100346.84;4985230;28;6795;-74
2022/04/19 07:11:36;;;;;;;;;;;;;;;15.13;41.75;100336.66;4983912;28;6791;-75
2022/04/19 07:14:04;;;;;;;;;;;;;;;15.25;42.25;100349.06;4967502;28;7019;-75
2022/04/19 07:16:29;;;;;;;;;;;;;;;15.32;41.39;100350.09;4968038;28;8017;-75
2022/04/19 07:18:55;;;;;;;;;;;;;;;15.38;41.88;100346.81;4982245;28;6938;-75
2022/04/19 07:26:49;;;;;;;;;;;;;;;15.52;42.30;100349.75;4978807;28;7194;-75
2022/04/19 07:29:20;;;;;;;;;;;;;;;15.54;41.37;100350.66;4985926;28;6796;-75
2022/04/19 07:31:48;;;;;;;;;;;;;;;15.52;41.62;100354.94;4968310;28;7346;-75
2022/04/19 07:34:15;;;;;;;;;;;;;;;15.53;42.17;100356.66;5002713;28;6960;-75
2022/04/19 07:36:41;;;;;;;;;;;;;;;15.56;42.20;100351.59;4986131;28;6995;-75
2022/04/19 07:39:12;;;;;;;;;;;;;;;15.65;41.71;100350.97;4983752;28;7224;-75
2022/04/19 07:41:39;;;;;;;;;;;;;;;15.72;42.03;100349.41;4984961;28;6800;-75
2022/04/19 07:44:08;;;;;;;;;;;;;;;15.83;42.06;100358.31;4987170;28;6812;-75
2022/04/19 07:46:35;;;;;;;;;;;;;;;15.99;41.93;100357.06;4987014;28;7281;-75
2022/04/19 07:49:02;;;;;;;;;;;;;;;16.12;41.66;100353.03;4985269;28;7207;-75
2022/04/19 07:51:29;;;;;;;;;;;;;;;16.24;41.31;100355.94;4986271;28;6995;-75
2022/04/19 07:53:55;;;;;;;;;;;;;;;16.37;41.43;100348.47;4983238;28;6891;-75
2022/04/19 07:56:22;;;;;;;;;;;;;;;16.46;41.63;100348.66;4985250;28;8107;-75
2022/04/19 07:58:48;;;;;;;;;;;;;;;16.58;41.13;100347.19;4986833;28;6821;-75
2022/04/19 08:01:15;;;;;;;;;;;;;;;16.69;41.01;100355.22;4985898;28;6772;-76
2022/04/19 08:03:40;;;;;;;;;;;;;;;16.77;40.70;100344.19;4985527;28;6949;-76
2022/04/19 08:06:06;;;;;;;;;;;;;;;16.87;41.12;100349.56;4969404;28;7057;-75
2022/04/19 08:08:32;;;;;;;;;;;;;;;16.99;40.96;100348.94;4986445;28;6878;-75
2022/04/19 08:10:57;;;;;;;;;;;;;;;17.07;40.70;100345.69;5000685;28;6799;-75
2022/04/19 08:13:24;;;;;;;;;;;;;;;17.14;40.40;100335.47;4968741;28;7133;-75
2022/04/19 08:15:50;;;;;;;;;;;;;;;17.22;39.50;100344.28;4985507;28;7343;-75
2022/04/19 08:18:18;;;;;;;;;;;;;;;17.29;39.90;100346.16;4985085;28;6941;-75
2022/04/19 08:20:46;;;;;;;;;;;;;;;17.40;39.50;100345.47;4985830;28;7008;-75
2022/04/19 08:23:12;;;;;;;;;;;;;;;17.49;39.32;100343.06;4965294;28;8068;-75
2022/04/19 08:25:40;;;;;;;;;;;;;;;17.61;38.68;100347.56;4987769;28;6888;-75
2022/04/19 08:28:07;;;;;;;;;;;;;;;17.71;38.32;100340.84;4988196;28;6815;-76
2022/04/19 08:30:33;;;;;;;;;;;;;;;17.82;37.97;100344.50;4985210;28;7196;-75
2022/04/19 08:32:59;;;;;;;;;;;;;;;17.95;38.14;100347.28;4965107;28;6964;-75
2022/04/19 08:35:26;;;;;;;;;;;;;;;18.08;37.56;100338.91;4987857;28;7199;-75
2022/04/19 08:37:53;;;;;;;;;;;;;;;18.20;37.23;100339.94;4983564;28;6957;-75
2022/04/19 08:40:19;;;;;;;;;;;;;;;18.28;37.56;100340.94;4985204;28;6823;-76
2022/04/19 08:42:46;;;;;;;;;;;;;;;18.35;37.19;100337.59;4985800;28;7168;-75
2022/04/19 08:45:15;;;;;;;;;;;;;;;18.48;36.81;100340.38;4983378;28;6800;-75
2022/04/19 08:47:44;;;;;;;;;;;;;;;18.58;36.91;100339.66;4987168;28;6832;-75
2022/04/19 08:50:14;;;;;;;;;;;;;;;18.73;36.55;100337.28;4964868;28;6989;-75
2022/04/19 08:52:41;;;;;;;;;;;;;;;18.92;36.74;100337.50;4984303;28;6816;-75
2022/04/19 08:57:55;;;;;;;;;;;;;;;19.28;36.01;100327.56;4997233;28;6827;-75
2022/04/19 09:00:23;;;;;;;;;;;;;;;19.42;35.75;100319.94;4985402;28;6811;-75
2022/04/19 09:02:59;;;;;;;;;;;;;;;19.55;35.30;100320.88;4985573;28;7182;-76
2022/04/19 09:05:27;;;;;;;;;;;;;;;19.65;34.44;100321.88;4987520;28;7067;-75
2022/04/19 09:07:58;;;;;;;;;;;;;;;19.79;34.30;100312.44;4988098;28;6815;-76
2022/04/19 09:10:33;;;;;;;;;;;;;;;19.93;33.93;100317.78;5003124;28;7421;-75
2022/04/19 09:13:04;;;;;;;;;;;;;;;20.11;34.10;100316.19;4986950;28;6836;-76
2022/04/19 09:15:42;;;;;;;;;;;;;;;20.35;33.95;100318.09;4987960;28;6811;-75
2022/04/19 09:18:24;;;;;;;;;;;;;;;20.61;33.75;100322.59;4986684;28;7947;-75
2022/04/19 09:20:52;;;;;;;;;;;;;;;20.81;33.16;100321.81;4963762;28;6966;-75
2022/04/19 09:23:19;;;;;;;;;;;;;;;21.03;32.68;100314.13;4987209;28;6815;-75
2022/04/19 09:25:45;;;;;;;;;;;;;;;21.33;32.22;100313.34;5004046;28;6812;-75
2022/04/19 09:28:20;;;;;;;;;;;;;;;21.75;31.61;100309.94;4987418;28;7027;-75
2022/04/19 09:30:57;;;;;;;;;;;;;;;22.31;31.05;100309.91;4967582;28;6962;-75
2022/04/19 09:33:28;;;;;;;;;;;;;;;22.98;30.19;100307.97;4985027;28;7884;-75
2022/04/19 09:36:04;;;;;;;;;;;;;;;23.65;29.51;100301.47;4987533;28;6811;-75
2022/04/19 09:38:38;;;;;;;;;;;;;;;24.30;28.96;100294.81;5002430;28;6816;-75
2022/04/19 09:41:07;;;;;;;;;;;;;;;24.90;28.20;100290.63;4987028;28;7957;-75
2022/04/19 09:43:33;;;;;;;;;;;;;;;25.32;27.46;100285.69;4980271;28;6808;-75
2022/04/19 09:46:03;;;;;;;;;;;;;;;25.69;27.31;100293.88;5000079;28;7096;-76
2022/04/19 09:48:37;;;;;;;;;;;;;;;26.00;26.95;100288.13;5002134;28;7257;-76
2022/04/19 09:51:07;;;;;;;;;;;;;;;26.33;26.63;100284.03;4987272;28;6820;-76
2022/04/19 09:53:41;;;;;;;;;;;;;;;26.69;26.30;100280.69;4987704;28;6804;-76
2022/04/19 09:56:12;;;;;;;;;;;;;;;26.99;25.46;100280.94;4985507;28;6887;-76
2022/04/19 09:58:39;;;;;;;;;;;;;;;27.17;24.21;100279.66;4961508;28;6975;-75
2022/04/19 10:01:05;;;;;;;;;;;;;;;27.23;24.54;100277.78;4981728;28;6792;-75
2022/04/19 10:09:05;;;;;;;;;;;;;;;27.65;24.21;100274.19;4970060;28;7022;-75
2022/04/19 10:11:32;;;;;;;;;;;;;;;27.88;23.27;100270.97;4998864;28;6792;-75
2022/04/19 10:13:58;;;;;;;;;;;;;;;28.06;23.52;100269.59;4986248;28;6959;-75
2022/04/19 10:16:27;;;;;;;;;;;;;;;28.31;22.95;100263.72;4984255;28;6909;-75
2022/04/19 10:18:53;;;;;;;;;;;;;;;28.42;22.60;100263.38;5000397;28;6812;-75
2022/04/19 10:21:33;;;;;;;;;;;;;;;28.50;22.54;100261.38;4985965;28;7274;-75
2022/04/19 10:24:14;;;;;;;;;;;;;;;28.62;22.71;100261.94;4984796;28;6977;-75
2022/04/19 10:26:46;;;;;;;;;;;;;;;28.70;22.06;100254.66;4985852;28;6819;-75
2022/04/19 10:29:23;;;;;;;;;;;;;;;28.87;22.43;100253.31;4981877;28;7034;-75
2022/04/19 10:32:28;;;;;;;;;;;;;;;29.19;21.52;100247.03;4984820;28;6807;-75
2022/04/19 10:35:01;;;;;;;;;;;;;;;29.56;22.13;100249.41;4980553;28;7227;-75
2022/04/19 10:37:27;;;;;;;;;;;;;;;29.91;21.72;100250.84;4983931;28;6820;-76
2022/04/19 10:39:59;;;;;;;;;;;;;;;29.98;20.85;100251.47;4983195;28;7026;-75
2022/04/19 10:42:40;;;;;;;;;;;;;;;29.77;21.31;100242.50;4986160;28;7157;-75
2022/04/19 10:45:12;;;;;;;;;;;;;;;29.63;21.59;100245.63;4997909;28;6815;-75
2022/04/19 10:47:53;;;;;;;;;;;;;;;29.61;20.79;100236.91;4987025;28;6887;-75
2022/04/19 10:50:39;;;;;;;;;;;;;;;29.77;21.43;100243.38;4987404;28;6811;-75
2022/04/19 10:53:12;;;;;;;;;;;;;;;29.92;20.51;100238.47;4985107;28;6832;-75
2022/04/19 10:55:40;;;;;;;;;;;;;;;29.80;21.41;100237.16;4984704;28;6796;-75
2022/04/19 10:58:16;;;;;;;;;;;;;;;29.74;21.00;100232.91;4997748;28;7708;-75
2022/04/19 11:00:42;;;;;;;;;;;;;;;29.73;20.15;100231.19;4997831;28;6820;-75
2022/04/19 11:03:13;;;;;;;;;;;;;;;29.72;20.75;100229.47;4985691;28;7091;-75
2022/04/19 11:05:44;;;;;;;;;;;;;;;29.91;20.81;100226.19;4999755;28;6800;-75
2022/04/19 11:08:25;;;;;;;;;;;;;;;30.14;19.70;100224.53;4950982;28;7109;-75
2022/04/19 11:10:56;;;;;;;;;;;;;;;30.37;20.21;100217.53;4986430;28;6803;-75
2022/04/19 11:13:26;;;;;;;;;;;;;;;30.51;19.85;100220.50;4985381;28;6820;-75
2022/04/19 11:16:04;;;;;;;;;;;;;;;30.57;19.81;100212.34;4968064;28;7250;-75
2022/04/19 11:18:31;;;;;;;;;;;;;;;30.83;19.73;100217.56;4983687;28;6836;-75
2022/04/19 11:21:02;;;;;;;;;;;;;;;30.96;19.37;100210.00;4981980;28;6895;-75
2022/04/19 11:23:29;;;;;;;;;;;;;;;30.84;18.33;100209.56;4969923;28;6800;-75
2022/04/19 11:25:56;;;;;;;;;;;;;;;30.65;18.41;100211.22;4982389;28;6807;-75
2022/04/19 11:28:29;;;;;;;;;;;;;;;30.40;18.99;100214.75;4982367;28;7963;-75
2022/04/19 11:30:54;;;;;;;;;;;;;;;30.23;18.88;100213.63;4985419;28;7856;-75
2022/04/19 11:33:26;;;;;;;;;;;;;;;30.11;18.35;100225.50;4983640;28;7042;-76
2022/04/19 11:36:09;;;;;;;;;;;;;;;30.09;18.92;100215.91;4986134;28;6824;-76
2022/04/19 11:38:42;;;;;;;;;;;;;;;30.16;19.25;100214.78;4979643;28;6827;-76
2022/04/19 11:46:47;;;;;;;;;;;;;;;30.35;18.66;100207.00;4997247;28;6811;-75
2022/04/19 11:49:16;;;;;;;;;;;;;;;30.31;19.09;100211.53;4983748;28;6808;-75
2022/04/19 11:51:49;;;;;;;;;;;;;;;30.28;18.41;100210.81;4984850;28;6808;-75
2022/04/19 11:54:33;;;;;;;;;;;;;;;30.48;18.85;100204.75;4984798;28;7132;-75
2022/04/19 11:57:05;;;;;;;;;;;;;;;30.60;18.42;100201.63;4970987;28;7059;-75
2022/04/19 11:59:33;;;;;;;;;;;;;;;30.88;18.27;100200.56;4985433;28;8040;-75
2022/04/19 12:02:03;;;;;;;;;;;;;;;31.14;18.55;100200.44;4987553;28;6796;-75
2022/04/19 12:04:29;;;;;;;;;;;;;;;31.09;17.92;100197.97;4970979;28;7220;-73
2022/04/19 12:07:03;;;;;;;;;;;;;;;30.96;18.33;100196.75;4972489;28;7248;-73
2022/04/19 12:09:32;;;;;;;;;;;;;;;30.89;17.99;100191.69;4984358;28;6807;-73
2022/04/19 12:11:59;;;;;;;;;;;;;;;30.79;18.05;100200.94;4984677;28;7503;-73
2022/04/19 12:14:30;;;;;;;;;;;;;;;30.47;18.61;100197.75;4986327;28;7160;-73
2022/04/19 12:17:06;;;;;;;;;;;;;;;30.03;18.07;100206.41;4985346;28;6875;-73
2022/04/19 12:19:39;;;;;;;;;;;;;;;29.68;18.62;100201.47;4988591;28;7229;-73
2022/04/19 12:22:23;;;;;;;;;;;;;;;29.51;18.65;100207.34;4989130;28;7027;-73
2022/04/19 12:24:58;;;;;;;;;;;;;;;29.42;18.56;100195.25;4988005;28;6987;-73
2022/04/19 12:27:34;;;;;;;;;;;;;;;29.32;19.25;100200.00;4986946;28;7138;-73
2022/04/19 12:30:04;;;;;;;;;;;;;;;29.17;19.01;100193.47;4969896;28;6883;-73
2022/04/19 12:33:13;;;;;;;;;;;;;;;28.89;19.50;100189.09;4987935;28;9828;-73
2022/04/19 12:35:39;;;;;;;;;;;;;;;28.61;18.89;100179.38;4968761;28;6828;-72
2022/04/19 12:38:17;;;;;;;;;;;;;;;28.47;19.19;100178.91;4987906;28;6808;-72
2022/04/19 12:40:44;;;;;;;;;;;;;;;28.55;19.30;100176.91;4986785;28;7001;-72
2022/04/19 12:43:14;;;;;;;;;;;;;;;28.67;19.50;100173.88;4982326;28;6965;-72
2022/04/19 12:45:41;;;;;;;;;;;;;;;28.85;19.70;100179.53;4981589;28;11729;-72
2022/04/19 12:48:23;;;;;;;;;;;;;;;29.09;19.06;100172.59;4984359;28;6800;-72
2022/04/19 12:51:04;;;;;;;;;;;;;;;29.31;19.30;100158.72;4995183;28;6795;-73
2022/04/19 12:53:30;;;;;;;;;;;;;;;29.39;18.94;100164.56;4984439;28;6807;-73
2022/04/19 12:55:56;;;;;;;;;;;;;;;29.34;18.58;100166.50;4984933;28;6792;-72
2022/04/19 12:58:21;;;;;;;;;;;;;;;29.18;18.69;100165.28;4981709;28;6807;-73
2022/04/19 13:00:47;;;;;;;;;;;;;;;29.23;18.90;100160.75;4984202;28;7032;-73
2022/04/19 13:03:14;;;;;;;;;;;;;;;29.41;19.10;100161.88;4985307;28;6851;-73
2022/04/19 13:13:58;;;;;;;;;;;;;;;29.42;18.81;100152.19;4998403;28;6812;-73
2022/04/19 13:16:24;;;;;;;;;;;;;;;29.52;19.25;100154.47;4985630;28;6795;-73
2022/04/19 13:18:49;;;;;;;;;;;;;;;29.51;18.58;100146.63;4998968;28;7736;-72
2022/04/19 13:21:16;;;;;;;;;;;;;;;29.29;18.68;100147.31;4987410;28;6792;-72
2022/04/19 13:23:41;;;;;;;;;;;;;;;28.82;18.83;100140.06;4984947;28;6816;-73
2022/04/19 13:26:07;;;;;;;;;;;;;;;28.25;19.54;100138.28;4999892;28;6890;-73
2022/04/19 13:28:33;;;;;;;;;;;;;;;27.85;19.89;100148.16;4971721;28;6787;-73
2022/04/19 13:30:59;;;;;;;;;;;;;;;27.52;20.05;100145.50;5003311;28;7079;-73
2022/04/19 13:33:25;;;;;;;;;;;;;;;27.45;20.03;100141.31;4986668;28;6863;-73
2022/04/19 13:35:51;;;;;;;;;;;;;;;27.60;20.45;100140.06;4988086;28;6899;-73